Impacts TAF Board
For situational awareness. Not to be used for flight planning purposes.
IDs:

KPHX - Phoenix/Sky Harbor, AZ, US

Issued at 0520 UTC 21 Oct 2018
Updated at 0830 UTC 21 Oct 2018
Potential Impact None Slight Moderate High
Time0751Z 21/09Z 21/10Z 21/11Z 21/12Z 21/13Z 21/14Z 21/15Z 21/16Z 21/17Z 21/18Z 21/19Z 21/20Z 21/21Z>>
Type OBS PRVL PRVL PRVL PRVL PRVL PRVL PRVL PRVL PRVL PRVL PRVL PRVL PRVL
VIS 10 >6 >6 >6 >6 >6 >6 >6 >6 >6 >6 >6 >6 >6
CIG 110 -- -- -- -- -- -- 80 80 80 80 80 80 80
Cover BKN SCT SCT SCT SCT SCT SCT BKN BKN BKN BKN BKN BKN BKN
FltCat VFR VFR VFR VFR VFR VFR VFR VFR VFR VFR VFR VFR VFR VFR
WX -- -- -- -- -- -- -- VCSH VCSH VCSH VCSH VCSH VCSH VCSH
WDir 150 90 90 90 90 90 90 100 100 100 100 100 100 100
WSpd 6 8 8 8 8 8 8 11 11 11 11 11 11 11
WGst -- -- -- -- -- -- -- 20 20 20 20 20 20 20
Raw TAF
KPHX 210520Z 2106/2212 09008KT P6SM SCT090 WS020/11035KT
  FM211500 10011G20KT P6SM VCSH BKN080
  FM212200 10011KT P6SM BKN070


Raw METAR
KPHX 210751Z 15006KT 10SM BKN110 26/10 A2992 RMK AO2 SLP114 T02610100
KPHX 210651Z 13007KT 10SM BKN095 BKN120 27/10 A2993 RMK AO2 SLP115 T02720100 403390211
KPHX 210551Z 11006KT 10SM BKN100 BKN120 28/10 A2992 RMK AO2 SLP115 T02780100 10322 20267 53014

METAR Board
Radar Display
Forecast Discussion
For situational awareness. Not to be used for flight planning purposes.